sensor_id;sensor_type;location;lat;lon;timestamp;pressure;altitude;pressure_sealevel;temperature;humidity
6869;BME280;3473;42.604;23.496;2022-09-01T00:00:32;20852.97;;;-140.19;91.52
6869;BME280;3473;42.604;23.496;2022-09-01T00:02:03;21043.22;;;-140.19;91.68
6869;BME280;3473;42.604;23.496;2022-09-01T00:03:37;20831.59;;;-140.19;91.46
6869;BME280;3473;42.604;23.496;2022-09-01T00:05:08;20014.34;;;-140.19;91.21
6869;BME280;3473;42.604;23.496;2022-09-01T00:06:40;19428.22;;;-140.19;90.85
6869;BME280;3473;42.604;23.496;2022-09-01T00:08:12;18859.66;;;-140.19;90.73
6869;BME280;3473;42.604;23.496;2022-09-01T00:09:44;18621.00;;;-140.19;90.53
6869;BME280;3473;42.604;23.496;2022-09-01T00:11:18;18461.91;;;-140.19;90.59
6869;BME280;3473;42.604;23.496;2022-09-01T00:12:49;18463.84;;;-140.19;90.53
6869;BME280;3473;42.604;23.496;2022-09-01T00:14:23;18465.78;;;-140.19;90.55
6869;BME280;3473;42.604;23.496;2022-09-01T00:15:54;17938.13;;;-140.19;90.30
6869;BME280;3473;42.604;23.496;2022-09-01T00:17:26;18089.44;;;-140.19;90.12
6869;BME280;3473;42.604;23.496;2022-09-01T00:18:57;18141.81;;;-140.19;90.30
6869;BME280;3473;42.604;23.496;2022-09-01T00:20:29;17957.53;;;-140.19;90.06
6869;BME280;3473;42.604;23.496;2022-09-01T00:22:02;17608.38;;;-140.19;89.87
6869;BME280;3473;42.604;23.496;2022-09-01T00:23:33;17526.91;;;-140.19;89.69
6869;BME280;3473;42.604;23.496;2022-09-01T00:25:05;17484.25;;;-140.19;89.68
6869;BME280;3473;42.604;23.496;2022-09-01T00:26:39;17389.22;;;-140.19;89.66
6869;BME280;3473;42.604;23.496;2022-09-01T00:28:11;17267.03;;;-140.19;89.48
6869;BME280;3473;42.604;23.496;2022-09-01T00:29:42;17274.78;;;-140.19;89.45
6869;BME280;3473;42.604;23.496;2022-09-01T00:31:15;16838.47;;;-140.19;88.32
6869;BME280;3473;42.604;23.496;2022-09-01T00:32:46;16609.66;;;-140.19;87.09
6869;BME280;3473;42.604;23.496;2022-09-01T00:34:18;16555.34;;;-140.19;86.76
6869;BME280;3473;42.604;23.496;2022-09-01T00:35:50;16630.97;;;-140.19;87.55
6869;BME280;3473;42.604;23.496;2022-09-01T00:37:22;16735.69;;;-140.19;88.15
6869;BME280;3473;42.604;23.496;2022-09-01T00:38:53;16952.88;;;-140.19;88.61
6869;BME280;3473;42.604;23.496;2022-09-01T00:40:25;16801.63;;;-140.19;88.65
6869;BME280;3473;42.604;23.496;2022-09-01T00:41:58;16931.53;;;-140.19;88.90
6869;BME280;3473;42.604;23.496;2022-09-01T00:43:37;17094.44;;;-140.19;89.18
6869;BME280;3473;42.604;23.496;2022-09-01T00:45:09;16797.72;;;-140.19;88.42
6869;BME280;3473;42.604;23.496;2022-09-01T00:46:43;16685.28;;;-140.19;88.23
6869;BME280;3473;42.604;23.496;2022-09-01T00:48:15;16729.88;;;-140.19;88.02
6869;BME280;3473;42.604;23.496;2022-09-01T00:49:48;16958.69;;;-140.19;88.37
6869;BME280;3473;42.604;23.496;2022-09-01T00:51:21;16902.44;;;-140.19;88.89
6869;BME280;3473;42.604;23.496;2022-09-01T00:52:54;17011.03;;;-140.19;89.29
6869;BME280;3473;42.604;23.496;2022-09-01T00:54:28;17212.72;;;-140.19;89.60
6869;BME280;3473;42.604;23.496;2022-09-01T00:56:01;17115.75;;;-140.19;89.61
6869;BME280;3473;42.604;23.496;2022-09-01T00:57:34;17261.22;;;-140.19;89.74
6869;BME280;3473;42.604;23.496;2022-09-01T00:59:07;17307.75;;;-140.19;89.89
6869;BME280;3473;42.604;23.496;2022-09-01T01:00:40;18004.09;;;-140.19;90.47
6869;BME280;3473;42.604;23.496;2022-09-01T01:02:12;17916.78;;;-140.19;90.61
6869;BME280;3473;42.604;23.496;2022-09-01T01:03:45;17860.53;;;-140.19;90.62
6869;BME280;3473;42.604;23.496;2022-09-01T01:05:17;18099.13;;;-140.19;90.78
6869;BME280;3473;42.604;23.496;2022-09-01T01:06:50;18258.22;;;-140.19;90.74
6869;BME280;3473;42.604;23.496;2022-09-01T01:08:30;19076.97;;;-140.19;91.26
6869;BME280;3473;42.604;23.496;2022-09-01T01:10:04;19513.59;;;-140.19;91.54
6869;BME280;3473;42.604;23.496;2022-09-01T01:11:36;20134.69;;;-140.19;92.06
6869;BME280;3473;42.604;23.496;2022-09-01T01:13:12;20381.22;;;-140.19;92.18
6869;BME280;3473;42.604;23.496;2022-09-01T01:14:46;21054.88;;;-140.19;92.29
6869;BME280;3473;42.604;23.496;2022-09-01T01:16:20;21625.75;;;-140.19;92.54
6869;BME280;3473;42.604;23.496;2022-09-01T01:17:52;22843.56;;;-140.19;92.87
6869;BME280;3473;42.604;23.496;2022-09-01T01:19:32;23511.91;;;-140.19;92.96
6869;BME280;3473;42.604;23.496;2022-09-01T01:21:31;23189.38;;;-140.19;92.87
6869;BME280;3473;42.604;23.496;2022-09-01T01:23:26;21973.38;;;-140.19;92.68
6869;BME280;3473;42.604;23.496;2022-09-01T01:25:01;22014.16;;;-140.19;92.59
6869;BME280;3473;42.604;23.496;2022-09-01T01:26:33;23204.94;;;-140.19;92.87
6869;BME280;3473;42.604;23.496;2022-09-01T01:28:10;23348.69;;;-140.19;92.86
6869;BME280;3473;42.604;23.496;2022-09-01T01:29:41;22206.44;;;-140.19;92.55
6869;BME280;3473;42.604;23.496;2022-09-01T01:31:14;20109.44;;;-140.19;92.03
6869;BME280;3473;42.604;23.496;2022-09-01T01:32:47;18807.25;;;-140.19;91.46
6869;BME280;3473;42.604;23.496;2022-09-01T01:34:18;18667.56;;;-140.19;91.52
6869;BME280;3473;42.604;23.496;2022-09-01T01:35:52;19044.00;;;-140.19;91.52
6869;BME280;3473;42.604;23.496;2022-09-01T01:37:24;20072.56;;;-140.19;92.20
6869;BME280;3473;42.604;23.496;2022-09-01T01:38:58;20466.63;;;-140.19;92.49
6869;BME280;3473;42.604;23.496;2022-09-01T01:40:32;20538.44;;;-140.19;92.32
6869;BME280;3473;42.604;23.496;2022-09-01T01:42:04;19437.91;;;-140.19;91.86
6869;BME280;3473;42.604;23.496;2022-09-01T01:43:39;19839.66;;;-140.19;92.15
6869;BME280;3473;42.604;23.496;2022-09-01T01:45:12;19961.94;;;-140.19;91.90
6869;BME280;3473;42.604;23.496;2022-09-01T01:46:50;20856.84;;;-140.19;92.29
6869;BME280;3473;42.604;23.496;2022-09-01T01:48:22;21713.16;;;-140.19;92.69
6869;BME280;3473;42.604;23.496;2022-09-01T01:49:54;23230.19;;;-140.19;93.09
6869;BME280;3473;42.604;23.496;2022-09-01T01:51:27;23405.06;;;-140.19;93.09
6869;BME280;3473;42.604;23.496;2022-09-01T01:53:03;22396.78;;;-140.19;92.84
6869;BME280;3473;42.604;23.496;2022-09-01T01:54:35;23869.44;;;-140.19;93.12
6869;BME280;3473;42.604;23.496;2022-09-01T01:56:09;25263.06;;;-140.19;93.59
6869;BME280;3473;42.604;23.496;2022-09-01T01:57:40;26101.03;;;-140.19;93.76
6869;BME280;3473;42.604;23.496;2022-09-01T01:59:18;26630.00;;;-140.19;93.67
6869;BME280;3473;42.604;23.496;2022-09-01T02:00:51;27550.06;;;-140.19;93.98
6869;BME280;3473;42.604;23.496;2022-09-01T02:02:24;30541.47;;;-140.19;94.41
6869;BME280;3473;42.604;23.496;2022-09-01T02:03:55;34260.63;;;-140.19;95.05
6869;BME280;3473;42.604;23.496;2022-09-01T02:05:29;39463.47;;;-140.19;95.54
6869;BME280;3473;42.604;23.496;2022-09-01T02:07:01;45879.09;;;-140.19;96.27
6869;BME280;3473;42.604;23.496;2022-09-01T02:08:35;52144.31;;;-140.19;96.88
6869;BME280;3473;42.604;23.496;2022-09-01T02:10:07;56160.16;;;-140.19;97.43
6869;BME280;3473;42.604;23.496;2022-09-01T02:11:40;57416.06;;;-140.19;97.46
6869;BME280;3473;42.604;23.496;2022-09-01T02:13:15;56160.16;;;-140.19;97.12
6869;BME280;3473;42.604;23.496;2022-09-01T02:14:46;53398.75;;;-140.19;96.75
6869;BME280;3473;42.604;23.496;2022-09-01T02:16:19;48383.78;;;-140.19;96.15
6869;BME280;3473;42.604;23.496;2022-09-01T02:17:52;48133.25;;;-140.19;96.35
6869;BME280;3473;42.604;23.496;2022-09-01T02:19:30;45378.38;;;-140.19;95.95
6869;BME280;3473;42.604;23.496;2022-09-01T02:21:01;42625.78;;;-140.19;95.57
6869;BME280;3473;42.604;23.496;2022-09-01T02:22:33;36551.84;;;-140.19;95.29
6869;BME280;3473;42.604;23.496;2022-09-01T02:24:07;38559.66;;;-140.19;95.37
6869;BME280;3473;42.604;23.496;2022-09-01T02:25:41;42547.63;;;-140.19;95.82
6869;BME280;3473;42.604;23.496;2022-09-01T02:27:15;45128.06;;;-140.19;95.97
6869;BME280;3473;42.604;23.496;2022-09-01T02:28:52;46129.47;;;-140.19;96.07
6869;BME280;3473;42.604;23.496;2022-09-01T02:30:24;46630.31;;;-140.19;96.14
6869;BME280;3473;42.604;23.496;2022-09-01T02:31:57;48884.94;;;-140.19;96.34
6869;BME280;3473;42.604;23.496;2022-09-01T02:33:29;50388.88;;;-140.19;96.62
6869;BME280;3473;42.604;23.496;2022-09-01T02:35:03;53147.81;;;-140.19;96.96
6869;BME280;3473;42.604;23.496;2022-09-01T02:36:37;53900.66;;;-140.19;97.05
6869;BME280;3473;42.604;23.496;2022-09-01T02:38:12;52395.16;;;-140.19;96.96
6869;BME280;3473;42.604;23.496;2022-09-01T02:39:44;50138.19;;;-140.19;96.65
6869;BME280;3473;42.604;23.496;2022-09-01T02:41:17;47882.69;;;-140.19;96.30
6869;BME280;3473;42.604;23.496;2022-09-01T02:42:54;44377.19;;;-140.19;95.98
6869;BME280;3473;42.604;23.496;2022-09-01T02:44:26;41756.28;;;-140.19;95.66
6869;BME280;3473;42.604;23.496;2022-09-01T02:46:00;38871.97;;;-140.19;95.43
6869;BME280;3473;42.604;23.496;2022-09-01T02:47:30;39168.69;;;-140.19;95.59
6869;BME280;3473;42.604;23.496;2022-09-01T02:49:02;40578.44;;;-140.19;95.77
6869;BME280;3473;42.604;23.496;2022-09-01T02:50:34;41742.63;;;-140.19;95.63
6869;BME280;3473;42.604;23.496;2022-09-01T02:52:06;40049.22;;;-140.19;95.53
6869;BME280;3473;42.604;23.496;2022-09-01T02:53:38;39830.53;;;-140.19;95.54
6869;BME280;3473;42.604;23.496;2022-09-01T02:55:09;41240.56;;;-140.19;95.55
6869;BME280;3473;42.604;23.496;2022-09-01T02:56:41;43126.09;;;-140.19;96.09
6869;BME280;3473;42.604;23.496;2022-09-01T02:58:15;45628.72;;;-140.19;96.20
6869;BME280;3473;42.604;23.496;2022-09-01T02:59:48;47131.22;;;-140.19;96.45
6869;BME280;3473;42.604;23.496;2022-09-01T03:01:22;46379.88;;;-140.19;96.37
6869;BME280;3473;42.604;23.496;2022-09-01T03:02:56;46630.31;;;-140.19;96.30
6869;BME280;3473;42.604;23.496;2022-09-01T03:04:29;44377.19;;;-140.19;95.95
6869;BME280;3473;42.604;23.496;2022-09-01T03:06:04;46630.31;;;-140.19;96.30
6869;BME280;3473;42.604;23.496;2022-09-01T03:07:37;49636.84;;;-140.19;96.64
6869;BME280;3473;42.604;23.496;2022-09-01T03:09:14;51141.09;;;-140.19;96.62
6869;BME280;3473;42.604;23.496;2022-09-01T03:10:46;47131.22;;;-140.19;96.08
6869;BME280;3473;42.604;23.496;2022-09-01T03:12:17;40740.53;;;-140.19;95.60
6869;BME280;3473;42.604;23.496;2022-09-01T03:13:51;35894.53;;;-140.19;95.17
6869;BME280;3473;42.604;23.496;2022-09-01T03:15:23;35065.78;;;-140.19;95.29
6869;BME280;3473;42.604;23.496;2022-09-01T03:16:55;36830.81;;;-140.19;95.49
6869;BME280;3473;42.604;23.496;2022-09-01T03:18:29;40219.09;;;-140.19;95.82
6869;BME280;3473;42.604;23.496;2022-09-01T03:20:01;43626.47;;;-140.19;96.14
6869;BME280;3473;42.604;23.496;2022-09-01T03:21:32;45128.06;;;-140.19;96.12
6869;BME280;3473;42.604;23.496;2022-09-01T03:23:07;45378.38;;;-140.19;96.32
6869;BME280;3473;42.604;23.496;2022-09-01T03:24:39;47381.69;;;-140.19;96.37
6869;BME280;3473;42.604;23.496;2022-09-01T03:26:12;45128.06;;;-140.19;96.19
6869;BME280;3473;42.604;23.496;2022-09-01T03:27:47;47381.69;;;-140.19;96.34
6869;BME280;3473;42.604;23.496;2022-09-01T03:29:20;50890.34;;;-140.19;96.76
6869;BME280;3473;42.604;23.496;2022-09-01T03:30:54;55909.00;;;-140.19;97.16
6869;BME280;3473;42.604;23.496;2022-09-01T03:32:26;54402.63;;;-140.19;96.80
6869;BME280;3473;42.604;23.496;2022-09-01T03:33:59;51391.88;;;-140.19;96.74
6869;BME280;3473;42.604;23.496;2022-09-01T03:35:30;45879.09;;;-140.19;96.29
6869;BME280;3473;42.604;23.496;2022-09-01T03:37:02;38518.66;;;-140.19;95.47
6869;BME280;3473;42.604;23.496;2022-09-01T03:38:36;36202.69;;;-140.19;95.19
6869;BME280;3473;42.604;23.496;2022-09-01T03:40:10;39178.44;;;-140.19;95.65
6869;BME280;3473;42.604;23.496;2022-09-01T03:41:42;43376.28;;;-140.19;95.92
6869;BME280;3473;42.604;23.496;2022-09-01T03:43:14;43329.38;;;-140.19;96.05
6869;BME280;3473;42.604;23.496;2022-09-01T03:44:47;40955.38;;;-140.19;95.75
6869;BME280;3473;42.604;23.496;2022-09-01T03:46:21;38594.78;;;-140.19;95.54
6869;BME280;3473;42.604;23.496;2022-09-01T03:47:54;37630.72;;;-140.19;95.39
6869;BME280;3473;42.604;23.496;2022-09-01T03:49:26;42723.50;;;-140.19;95.97
6869;BME280;3473;42.604;23.496;2022-09-01T03:50:59;48383.78;;;-140.19;96.68
6869;BME280;3473;42.604;23.496;2022-09-01T03:52:31;50388.88;;;-140.19;96.83
6869;BME280;3473;42.604;23.496;2022-09-01T03:54:03;50639.59;;;-140.19;96.80
6869;BME280;3473;42.604;23.496;2022-09-01T03:55:35;45378.38;;;-140.19;96.06
6869;BME280;3473;42.604;23.496;2022-09-01T03:57:07;44099.56;;;-140.19;96.17
6869;BME280;3473;42.604;23.496;2022-09-01T03:58:39;44377.19;;;-140.19;96.03
6869;BME280;3473;42.604;23.496;2022-09-01T04:00:14;46379.88;;;-140.19;96.48
6869;BME280;3473;42.604;23.496;2022-09-01T04:01:50;51893.47;;;-140.19;97.03
6869;BME280;3473;42.604;23.496;2022-09-01T04:03:23;55406.81;;;-140.19;97.16
6869;BME280;3473;42.604;23.496;2022-09-01T04:04:55;60432.19;;;-140.19;97.76
6869;BME280;3473;42.604;23.496;2022-09-01T04:06:28;59929.31;;;-140.19;97.75
6869;BME280;3473;42.604;23.496;2022-09-01T04:08:03;60935.13;;;-140.19;97.81
6869;BME280;3473;42.604;23.496;2022-09-01T04:09:35;57416.06;;;-140.19;97.46
6869;BME280;3473;42.604;23.496;2022-09-01T04:11:12;55909.00;;;-140.19;97.16
6869;BME280;3473;42.604;23.496;2022-09-01T04:12:44;53649.69;;;-140.19;97.16
6869;BME280;3473;42.604;23.496;2022-09-01T04:14:15;53398.75;;;-140.19;97.06
6869;BME280;3473;42.604;23.496;2022-09-01T04:15:49;54904.69;;;-140.19;97.26
6869;BME280;3473;42.604;23.496;2022-09-01T04:17:21;52896.91;;;-140.19;96.82
6869;BME280;3473;42.604;23.496;2022-09-01T04:19:14;51391.88;;;-140.19;96.78
6869;BME280;3473;42.604;23.496;2022-09-01T04:20:50;55657.91;;;-140.19;97.29
6869;BME280;3473;42.604;23.496;2022-09-01T04:22:23;59677.91;;;-140.19;97.86
6869;BME280;3473;42.604;23.496;2022-09-01T04:23:58;64709.59;;;-140.19;98.42
6869;BME280;3473;42.604;23.496;2022-09-01T04:25:34;67480.19;;;-140.19;98.70
6869;BME280;3473;42.604;23.496;2022-09-01T04:27:08;68740.31;;;-140.19;98.95
6869;BME280;3473;42.604;23.496;2022-09-01T04:28:42;68992.38;;;-140.19;98.67
6869;BME280;3473;42.604;23.496;2022-09-01T04:30:14;68236.22;;;-140.19;98.67
6869;BME280;3473;42.604;23.496;2022-09-01T04:31:47;66472.44;;;-140.19;98.43
6869;BME280;3473;42.604;23.496;2022-09-01T04:33:23;67480.19;;;-140.19;98.86
6869;BME280;3473;42.604;23.496;2022-09-01T04:34:55;72018.78;;;-140.19;99.15
6869;BME280;3473;42.604;23.496;2022-09-01T04:36:28;72775.78;;;-140.19;99.41
6869;BME280;3473;42.604;23.496;2022-09-01T04:38:03;74290.31;;;-140.19;99.54
6869;BME280;3473;42.604;23.496;2022-09-01T04:39:37;75805.50;;;-140.19;99.83
6869;BME280;3473;42.604;23.496;2022-09-01T04:41:09;76058.13;;;-140.19;99.71
6869;BME280;3473;42.604;23.496;2022-09-01T04:42:46;76816.03;;;-140.19;99.74
6869;BME280;3473;42.604;23.496;2022-09-01T04:44:18;77826.81;;;-140.19;99.94
6869;BME280;3473;42.604;23.496;2022-09-01T04:45:51;82632.19;;;-140.19;100.00
6869;BME280;3473;42.604;23.496;2022-09-01T04:47:27;84657.53;;;-140.19;100.00
6869;BME280;3473;42.604;23.496;2022-09-01T04:49:00;85164.03;;;-140.19;100.00
6869;BME280;3473;42.604;23.496;2022-09-01T04:50:33;86430.66;;;-140.19;100.00
6869;BME280;3473;42.604;23.496;2022-09-01T04:52:06;86684.03;;;-140.19;100.00
6869;BME280;3473;42.604;23.496;2022-09-01T04:53:38;84910.78;;;-140.19;100.00
6869;BME280;3473;42.604;23.496;2022-09-01T04:55:11;82632.19;;;-140.19;100.00
6869;BME280;3473;42.604;23.496;2022-09-01T04:56:48;82379.13;;;-140.19;100.00
6869;BME280;3473;42.604;23.496;2022-09-01T04:58:20;81366.97;;;-140.19;100.00
6869;BME280;3473;42.604;23.496;2022-09-01T04:59:52;80861.00;;;-140.19;100.00
6869;BME280;3473;42.604;23.496;2022-09-01T05:01:26;78837.91;;;-140.19;100.00
6869;BME280;3473;42.604;23.496;2022-09-01T05:03:02;79090.75;;;-140.19;100.00
6869;BME280;3473;42.604;23.496;2022-09-01T05:04:35;80608.06;;;-140.19;100.00
6869;BME280;3473;42.604;23.496;2022-09-01T05:06:12;80861.00;;;-140.19;100.00
6869;BME280;3473;42.604;23.496;2022-09-01T05:07:43;81114.00;;;-140.19;100.00
6869;BME280;3473;42.604;23.496;2022-09-01T05:09:17;81366.97;;;-140.19;100.00
6869;BME280;3473;42.604;23.496;2022-09-01T05:10:51;80355.13;;;-140.19;100.00
6869;BME280;3473;42.604;23.496;2022-09-01T05:12:25;79849.31;;;-140.19;100.00
6869;BME280;3473;42.604;23.496;2022-09-01T05:13:58;79596.44;;;-140.19;100.00
6869;BME280;3473;42.604;23.496;2022-09-01T05:15:29;77068.69;;;-140.19;99.72
6869;BME280;3473;42.604;23.496;2022-09-01T05:17:01;77321.38;;;-140.19;99.67
6869;BME280;3473;42.604;23.496;2022-09-01T05:18:36;75552.94;;;-140.19;99.41
6869;BME280;3473;42.604;23.496;2022-09-01T05:20:09;73785.41;;;-140.19;99.09
6869;BME280;3473;42.604;23.496;2022-09-01T05:21:42;71009.69;;;-140.19;98.76
6869;BME280;3473;42.604;23.496;2022-09-01T05:23:15;67480.19;;;-140.19;98.30
6869;BME280;3473;42.604;23.496;2022-09-01T05:24:49;62947.66;;;-140.19;97.84
6869;BME280;3473;42.604;23.496;2022-09-01T05:26:22;59929.31;;;-140.19;97.51
6869;BME280;3473;42.604;23.496;2022-09-01T05:27:55;56662.47;;;-140.19;97.12
6869;BME280;3473;42.604;23.496;2022-09-01T05:29:27;56160.16;;;-140.19;97.01
6869;BME280;3473;42.604;23.496;2022-09-01T05:30:59;50639.59;;;-140.19;96.65
6869;BME280;3473;42.604;23.496;2022-09-01T05:32:31;51893.47;;;-140.19;96.74
6869;BME280;3473;42.604;23.496;2022-09-01T05:34:04;55406.81;;;-140.19;96.99
6869;BME280;3473;42.604;23.496;2022-09-01T05:35:39;53147.81;;;-140.19;96.73
6869;BME280;3473;42.604;23.496;2022-09-01T05:37:14;51642.66;;;-140.19;96.69
6869;BME280;3473;42.604;23.496;2022-09-01T05:38:46;52896.91;;;-140.19;96.62
6869;BME280;3473;42.604;23.496;2022-09-01T05:40:18;50388.88;;;-140.19;96.47
6869;BME280;3473;42.604;23.496;2022-09-01T05:41:51;50890.34;;;-140.19;96.60
6869;BME280;3473;42.604;23.496;2022-09-01T05:43:23;50890.34;;;-140.19;96.45
6869;BME280;3473;42.604;23.496;2022-09-01T05:44:57;46129.47;;;-140.19;96.19
6869;BME280;3473;42.604;23.496;2022-09-01T05:46:29;48133.25;;;-140.19;96.25
6869;BME280;3473;42.604;23.496;2022-09-01T05:48:01;47882.69;;;-140.19;96.29
6869;BME280;3473;42.604;23.496;2022-09-01T05:49:36;45628.72;;;-140.19;96.04
6869;BME280;3473;42.604;23.496;2022-09-01T05:51:09;42791.91;;;-140.19;95.76
6869;BME280;3473;42.604;23.496;2022-09-01T05:52:41;38540.13;;;-140.19;95.41
6869;BME280;3473;42.604;23.496;2022-09-01T05:54:17;37119.53;;;-140.19;95.26
6869;BME280;3473;42.604;23.496;2022-09-01T05:55:52;28970.50;;;-140.19;94.36
6869;BME280;3473;42.604;23.496;2022-09-01T05:57:26;28149.28;;;-140.19;94.33
6869;BME280;3473;42.604;23.496;2022-09-01T05:58:59;28378.91;;;-140.19;94.28
6869;BME280;3473;42.604;23.496;2022-09-01T06:00:31;22194.78;;;-140.19;92.89
6869;BME280;3473;42.604;23.496;2022-09-01T06:02:04;21518.94;;;-140.19;92.84
6869;BME280;3473;42.604;23.496;2022-09-01T06:03:38;23476.94;;;-140.19;93.38
6869;BME280;3473;42.604;23.496;2022-09-01T06:05:12;26068.00;;;-140.19;93.89
6869;BME280;3473;42.604;23.496;2022-09-01T06:06:47;27079.31;;;-140.19;93.98
6869;BME280;3473;42.604;23.496;2022-09-01T06:08:21;27264.09;;;-140.19;93.91
6869;BME280;3473;42.604;23.496;2022-09-01T06:09:54;26355.78;;;-140.19;93.75
6869;BME280;3473;42.604;23.496;2022-09-01T06:11:26;24714.88;;;-140.19;93.47
6869;BME280;3473;42.604;23.496;2022-09-01T06:13:02;23682.91;;;-140.19;93.24
6869;BME280;3473;42.604;23.496;2022-09-01T06:14:36;22511.41;;;-140.19;92.97
6869;BME280;3473;42.604;23.496;2022-09-01T06:16:08;21992.81;;;-140.19;92.76
6869;BME280;3473;42.604;23.496;2022-09-01T06:17:41;19971.63;;;-140.19;91.89
6869;BME280;3473;42.604;23.496;2022-09-01T06:19:13;18859.66;;;-140.19;91.26
6869;BME280;3473;42.604;23.496;2022-09-01T06:20:47;18159.28;;;-140.19;90.49
6869;BME280;3473;42.604;23.496;2022-09-01T06:22:19;18168.97;;;-140.19;90.55
6869;BME280;3473;42.604;23.496;2022-09-01T06:23:51;18101.06;;;-140.19;90.67
6869;BME280;3473;42.604;23.496;2022-09-01T06:25:23;18031.25;;;-140.19;90.40
6869;BME280;3473;42.604;23.496;2022-09-01T06:27:00;17833.38;;;-140.19;90.15
6869;BME280;3473;42.604;23.496;2022-09-01T06:28:31;18240.75;;;-140.19;90.27
6869;BME280;3473;42.604;23.496;2022-09-01T06:30:04;18044.81;;;-140.19;90.54
6869;BME280;3473;42.604;23.496;2022-09-01T06:31:44;18304.78;;;-140.19;90.82
6869;BME280;3473;42.604;23.496;2022-09-01T06:33:20;18159.28;;;-140.19;90.57
6869;BME280;3473;42.604;23.496;2022-09-01T06:34:54;18446.38;;;-140.19;90.97
6869;BME280;3473;42.604;23.496;2022-09-01T06:36:29;19247.75;;;-140.19;91.58
6869;BME280;3473;42.604;23.496;2022-09-01T06:38:02;18764.56;;;-140.19;90.94
6869;BME280;3473;42.604;23.496;2022-09-01T06:39:34;18388.19;;;-140.19;90.71
6869;BME280;3473;42.604;23.496;2022-09-01T06:41:05;18289.25;;;-140.19;90.65
6869;BME280;3473;42.604;23.496;2022-09-01T06:42:43;18099.13;;;-140.19;90.16
6869;BME280;3473;42.604;23.496;2022-09-01T06:44:16;17422.19;;;-140.19;89.33
6869;BME280;3473;42.604;23.496;2022-09-01T06:45:51;17395.03;;;-140.19;89.06
6869;BME280;3473;42.604;23.496;2022-09-01T06:47:23;17352.38;;;-140.19;88.95
6869;BME280;3473;42.604;23.496;2022-09-01T06:48:57;16995.53;;;-140.19;88.26
6869;BME280;3473;42.604;23.496;2022-09-01T06:50:30;17185.59;;;-140.19;88.04
6869;BME280;3473;42.604;23.496;2022-09-01T06:52:04;17360.13;;;-140.19;88.85
6869;BME280;3473;42.604;23.496;2022-09-01T06:53:35;17668.50;;;-140.19;89.08
6869;BME280;3473;42.604;23.496;2022-09-01T06:55:08;17340.72;;;-140.19;87.96
6869;BME280;3473;42.604;23.496;2022-09-01T06:56:40;17245.69;;;-140.19;88.13
6869;BME280;3473;42.604;23.496;2022-09-01T06:58:12;17334.91;;;-140.19;88.29
6869;BME280;3473;42.604;23.496;2022-09-01T06:59:45;17278.66;;;-140.19;88.39
6869;BME280;3473;42.604;23.496;2022-09-01T07:01:18;17201.09;;;-140.19;88.00
6869;BME280;3473;42.604;23.496;2022-09-01T07:02:53;17065.34;;;-140.19;88.06
6869;BME280;3473;42.604;23.496;2022-09-01T07:04:26;17274.78;;;-140.19;88.25
6869;BME280;3473;42.604;23.496;2022-09-01T07:06:04;17125.47;;;-140.19;87.80
6869;BME280;3473;42.604;23.496;2022-09-01T07:07:37;17113.81;;;-140.19;87.33
6869;BME280;3473;42.604;23.496;2022-09-01T07:09:10;17022.69;;;-140.19;86.29
6869;BME280;3473;42.604;23.496;2022-09-01T07:10:45;16817.13;;;-140.19;85.56
6869;BME280;3473;42.604;23.496;2022-09-01T07:12:17;16981.97;;;-140.19;85.12
6869;BME280;3473;42.604;23.496;2022-09-01T07:13:49;16607.72;;;-140.19;83.96
6869;BME280;3473;42.604;23.496;2022-09-01T07:15:23;16390.53;;;-140.19;82.77
6869;BME280;3473;42.604;23.496;2022-09-01T07:16:55;16340.13;;;-140.19;82.24
6869;BME280;3473;42.604;23.496;2022-09-01T07:18:27;16291.66;;;-140.19;81.56
6869;BME280;3473;42.604;23.496;2022-09-01T07:20:00;16086.16;;;-140.19;80.54
6869;BME280;3473;42.604;23.496;2022-09-01T07:21:32;16128.81;;;-140.19;79.99
6869;BME280;3473;42.604;23.496;2022-09-01T07:23:05;16371.16;;;-140.19;79.54
6869;BME280;3473;42.604;23.496;2022-09-01T07:24:37;16185.03;;;-140.19;79.06
6869;BME280;3473;42.604;23.496;2022-09-01T07:26:09;16140.44;;;-140.19;77.79
6869;BME280;3473;42.604;23.496;2022-09-01T07:27:47;16068.72;;;-140.19;77.41
6869;BME280;3473;42.604;23.496;2022-09-01T07:29:19;16243.19;;;-140.19;76.87
6869;BME280;3473;42.604;23.496;2022-09-01T07:30:55;16281.97;;;-140.19;76.58
6869;BME280;3473;42.604;23.496;2022-09-01T07:32:27;16386.66;;;-140.19;75.97
6869;BME280;3473;42.604;23.496;2022-09-01T07:34:02;16258.72;;;-140.19;75.07
6869;BME280;3473;42.604;23.496;2022-09-01T07:35:36;16233.50;;;-140.19;73.77
6869;BME280;3473;42.604;23.496;2022-09-01T07:37:08;16369.22;;;-140.19;74.27
6869;BME280;3473;42.604;23.496;2022-09-01T07:38:42;16408.00;;;-140.19;74.37
6869;BME280;3473;42.604;23.496;2022-09-01T07:40:16;16565.06;;;-140.19;73.39
6869;BME280;3473;42.604;23.496;2022-09-01T07:41:49;16778.34;;;-140.19;72.65
6869;BME280;3473;42.604;23.496;2022-09-01T07:43:22;16663.94;;;-140.19;71.68
6869;BME280;3473;42.604;23.496;2022-09-01T07:44:55;16677.50;;;-140.19;69.56
6869;BME280;3473;42.604;23.496;2022-09-01T07:46:28;16599.94;;;-140.19;69.71
6869;BME280;3473;42.604;23.496;2022-09-01T07:48:04;16993.59;;;-140.19;70.70
6869;BME280;3473;42.604;23.496;2022-09-01T07:49:36;16933.47;;;-140.19;69.44
6869;BME280;3473;42.604;23.496;2022-09-01T07:51:11;17005.22;;;-140.19;68.75
6869;BME280;3473;42.604;23.496;2022-09-01T07:52:43;17028.50;;;-140.19;68.38
6869;BME280;3473;42.604;23.496;2022-09-01T07:54:20;17053.72;;;-140.19;66.89
6869;BME280;3473;42.604;23.496;2022-09-01T07:55:54;17028.50;;;-140.19;67.04
6869;BME280;3473;42.604;23.496;2022-09-01T07:57:26;17173.94;;;-140.19;66.11
6869;BME280;3473;42.604;23.496;2022-09-01T07:58:58;17222.44;;;-140.19;64.79
6869;BME280;3473;42.604;23.496;2022-09-01T08:00:31;17076.97;;;-140.19;65.58
6869;BME280;3473;42.604;23.496;2022-09-01T08:02:03;17288.38;;;-140.19;64.89
6869;BME280;3473;42.604;23.496;2022-09-01T08:03:35;17371.75;;;-140.19;64.67
6869;BME280;3473;42.604;23.496;2022-09-01T08:05:12;17495.88;;;-140.19;63.12
6869;BME280;3473;42.604;23.496;2022-09-01T08:06:45;17327.16;;;-140.19;63.37
6869;BME280;3473;42.604;23.496;2022-09-01T08:08:17;17414.44;;;-140.19;62.96